sensor_id;sensor_type;location;lat;lon;timestamp;P1;durP1;ratioP1;P2;durP2;ratioP2
10904;SDS011;5505;51.450;9.254;2023-07-31T00:00:01;2.70;;;1.00;;
10904;SDS011;5505;51.450;9.254;2023-07-31T00:02:48;2.07;;;1.30;;
10904;SDS011;5505;51.450;9.254;2023-07-31T00:05:35;1.50;;;1.07;;
10904;SDS011;5505;51.450;9.254;2023-07-31T00:08:22;1.20;;;1.10;;
10904;SDS011;5505;51.450;9.254;2023-07-31T00:11:09;2.93;;;1.20;;
10904;SDS011;5505;51.450;9.254;2023-07-31T00:13:55;1.83;;;1.00;;
10904;SDS011;5505;51.450;9.254;2023-07-31T00:16:43;3.50;;;1.30;;
10904;SDS011;5505;51.450;9.254;2023-07-31T00:19:30;2.33;;;1.20;;
10904;SDS011;5505;51.450;9.254;2023-07-31T00:22:17;2.37;;;0.97;;
10904;SDS011;5505;51.450;9.254;2023-07-31T00:25:04;1.90;;;0.90;;
10904;SDS011;5505;51.450;9.254;2023-07-31T00:27:51;1.10;;;0.80;;
10904;SDS011;5505;51.450;9.254;2023-07-31T00:30:38;1.13;;;0.93;;
10904;SDS011;5505;51.450;9.254;2023-07-31T00:33:27;1.67;;;1.10;;
10904;SDS011;5505;51.450;9.254;2023-07-31T00:36:13;1.73;;;0.90;;
10904;SDS011;5505;51.450;9.254;2023-07-31T00:39:00;1.00;;;0.90;;
10904;SDS011;5505;51.450;9.254;2023-07-31T00:41:47;1.03;;;0.93;;
10904;SDS011;5505;51.450;9.254;2023-07-31T00:44:34;1.67;;;1.10;;
10904;SDS011;5505;51.450;9.254;2023-07-31T00:47:20;1.20;;;1.10;;
10904;SDS011;5505;51.450;9.254;2023-07-31T00:50:09;1.23;;;1.00;;
10904;SDS011;5505;51.450;9.254;2023-07-31T00:52:56;1.13;;;1.00;;
10904;SDS011;5505;51.450;9.254;2023-07-31T00:55:43;1.17;;;0.90;;
10904;SDS011;5505;51.450;9.254;2023-07-31T00:58:30;1.10;;;1.00;;
10904;SDS011;5505;51.450;9.254;2023-07-31T01:01:17;1.23;;;1.13;;
10904;SDS011;5505;51.450;9.254;2023-07-31T01:04:04;1.57;;;0.77;;
10904;SDS011;5505;51.450;9.254;2023-07-31T01:06:54;2.10;;;1.00;;
10904;SDS011;5505;51.450;9.254;2023-07-31T01:09:47;1.10;;;0.70;;
10904;SDS011;5505;51.450;9.254;2023-07-31T01:12:43;2.00;;;1.30;;
10904;SDS011;5505;51.450;9.254;2023-07-31T01:15:31;1.30;;;1.13;;
10904;SDS011;5505;51.450;9.254;2023-07-31T01:18:18;1.63;;;1.20;;
10904;SDS011;5505;51.450;9.254;2023-07-31T01:21:07;1.90;;;1.07;;
10904;SDS011;5505;51.450;9.254;2023-07-31T01:27:21;1.80;;;1.17;;
10904;SDS011;5505;51.450;9.254;2023-07-31T01:30:11;1.37;;;1.17;;
10904;SDS011;5505;51.450;9.254;2023-07-31T01:33:02;2.57;;;1.20;;
10904;SDS011;5505;51.450;9.254;2023-07-31T01:35:52;2.20;;;1.00;;
10904;SDS011;5505;51.450;9.254;2023-07-31T01:38:39;3.30;;;1.20;;
10904;SDS011;5505;51.450;9.254;2023-07-31T01:41:26;2.10;;;1.20;;
10904;SDS011;5505;51.450;9.254;2023-07-31T01:44:14;4.03;;;1.73;;
10904;SDS011;5505;51.450;9.254;2023-07-31T01:47:01;1.80;;;1.10;;
10904;SDS011;5505;51.450;9.254;2023-07-31T01:49:48;1.37;;;1.27;;
10904;SDS011;5505;51.450;9.254;2023-07-31T01:52:35;3.33;;;1.30;;
10904;SDS011;5505;51.450;9.254;2023-07-31T01:55:21;1.50;;;0.90;;
10904;SDS011;5505;51.450;9.254;2023-07-31T01:58:09;2.63;;;1.10;;
10904;SDS011;5505;51.450;9.254;2023-07-31T02:00:57;2.43;;;1.10;;
10904;SDS011;5505;51.450;9.254;2023-07-31T02:03:44;0.90;;;0.90;;
10904;SDS011;5505;51.450;9.254;2023-07-31T02:06:30;3.37;;;1.30;;
10904;SDS011;5505;51.450;9.254;2023-07-31T02:09:17;2.03;;;1.20;;
10904;SDS011;5505;51.450;9.254;2023-07-31T02:12:04;1.40;;;1.27;;
10904;SDS011;5505;51.450;9.254;2023-07-31T02:14:53;2.17;;;1.40;;
10904;SDS011;5505;51.450;9.254;2023-07-31T02:17:41;1.77;;;1.00;;
10904;SDS011;5505;51.450;9.254;2023-07-31T02:20:28;2.60;;;1.30;;
10904;SDS011;5505;51.450;9.254;2023-07-31T02:23:15;1.40;;;1.20;;
10904;SDS011;5505;51.450;9.254;2023-07-31T02:26:01;1.50;;;1.20;;
10904;SDS011;5505;51.450;9.254;2023-07-31T02:28:48;1.87;;;1.17;;
10904;SDS011;5505;51.450;9.254;2023-07-31T02:31:35;1.57;;;1.30;;
10904;SDS011;5505;51.450;9.254;2023-07-31T02:34:23;4.30;;;1.47;;
10904;SDS011;5505;51.450;9.254;2023-07-31T02:37:10;2.23;;;1.37;;
10904;SDS011;5505;51.450;9.254;2023-07-31T02:39:56;2.47;;;1.30;;
10904;SDS011;5505;51.450;9.254;2023-07-31T02:42:43;2.70;;;1.30;;
10904;SDS011;5505;51.450;9.254;2023-07-31T02:45:30;2.03;;;1.47;;
10904;SDS011;5505;51.450;9.254;2023-07-31T02:48:17;2.90;;;1.60;;
10904;SDS011;5505;51.450;9.254;2023-07-31T02:51:05;2.37;;;1.43;;
10904;SDS011;5505;51.450;9.254;2023-07-31T02:53:52;1.97;;;1.53;;
10904;SDS011;5505;51.450;9.254;2023-07-31T02:56:38;1.60;;;1.50;;
10904;SDS011;5505;51.450;9.254;2023-07-31T02:59:25;2.83;;;1.80;;
10904;SDS011;5505;51.450;9.254;2023-07-31T03:02:13;2.50;;;1.60;;
10904;SDS011;5505;51.450;9.254;2023-07-31T03:05:00;2.67;;;1.90;;
10904;SDS011;5505;51.450;9.254;2023-07-31T03:07:48;2.90;;;1.80;;
10904;SDS011;5505;51.450;9.254;2023-07-31T03:10:35;2.70;;;1.77;;
10904;SDS011;5505;51.450;9.254;2023-07-31T03:13:22;3.07;;;1.70;;
10904;SDS011;5505;51.450;9.254;2023-07-31T03:16:09;2.83;;;2.03;;
10904;SDS011;5505;51.450;9.254;2023-07-31T03:18:55;3.70;;;1.87;;
10904;SDS011;5505;51.450;9.254;2023-07-31T03:21:42;3.13;;;2.30;;
10904;SDS011;5505;51.450;9.254;2023-07-31T03:24:30;5.00;;;2.30;;
10904;SDS011;5505;51.450;9.254;2023-07-31T03:27:18;2.53;;;2.10;;
10904;SDS011;5505;51.450;9.254;2023-07-31T03:30:05;3.07;;;1.97;;
10904;SDS011;5505;51.450;9.254;2023-07-31T03:32:53;2.53;;;2.33;;
10904;SDS011;5505;51.450;9.254;2023-07-31T03:35:40;2.97;;;2.23;;
10904;SDS011;5505;51.450;9.254;2023-07-31T03:38:27;3.40;;;2.40;;
10904;SDS011;5505;51.450;9.254;2023-07-31T03:41:15;5.90;;;2.43;;
10904;SDS011;5505;51.450;9.254;2023-07-31T03:44:02;4.60;;;2.43;;
10904;SDS011;5505;51.450;9.254;2023-07-31T03:46:49;2.67;;;2.00;;
10904;SDS011;5505;51.450;9.254;2023-07-31T03:49:36;3.20;;;2.00;;
10904;SDS011;5505;51.450;9.254;2023-07-31T03:52:23;3.47;;;2.17;;
10904;SDS011;5505;51.450;9.254;2023-07-31T03:55:10;3.90;;;2.20;;
10904;SDS011;5505;51.450;9.254;2023-07-31T03:57:58;4.23;;;2.50;;
10904;SDS011;5505;51.450;9.254;2023-07-31T04:00:45;3.57;;;2.20;;
10904;SDS011;5505;51.450;9.254;2023-07-31T04:03:33;3.27;;;2.30;;
10904;SDS011;5505;51.450;9.254;2023-07-31T04:06:20;2.70;;;1.97;;
10904;SDS011;5505;51.450;9.254;2023-07-31T04:09:07;3.07;;;2.20;;
10904;SDS011;5505;51.450;9.254;2023-07-31T04:11:54;3.63;;;2.10;;
10904;SDS011;5505;51.450;9.254;2023-07-31T04:14:42;2.77;;;2.10;;
10904;SDS011;5505;51.450;9.254;2023-07-31T04:17:29;6.17;;;2.37;;
10904;SDS011;5505;51.450;9.254;2023-07-31T04:20:15;4.47;;;2.50;;
10904;SDS011;5505;51.450;9.254;2023-07-31T04:23:02;3.47;;;1.97;;
10904;SDS011;5505;51.450;9.254;2023-07-31T04:25:49;3.87;;;2.10;;
10904;SDS011;5505;51.450;9.254;2023-07-31T04:28:36;2.30;;;1.90;;
10904;SDS011;5505;51.450;9.254;2023-07-31T04:31:24;2.77;;;2.10;;
10904;SDS011;5505;51.450;9.254;2023-07-31T04:34:10;3.37;;;2.00;;
10904;SDS011;5505;51.450;9.254;2023-07-31T04:36:57;2.53;;;2.00;;
10904;SDS011;5505;51.450;9.254;2023-07-31T04:39:44;4.10;;;2.07;;
10904;SDS011;5505;51.450;9.254;2023-07-31T04:42:31;2.23;;;1.73;;
10904;SDS011;5505;51.450;9.254;2023-07-31T04:45:18;2.83;;;2.23;;
10904;SDS011;5505;51.450;9.254;2023-07-31T04:48:06;4.40;;;2.23;;
10904;SDS011;5505;51.450;9.254;2023-07-31T04:50:52;3.20;;;2.10;;
10904;SDS011;5505;51.450;9.254;2023-07-31T04:53:39;2.57;;;1.90;;
10904;SDS011;5505;51.450;9.254;2023-07-31T04:56:26;4.47;;;2.00;;
10904;SDS011;5505;51.450;9.254;2023-07-31T04:59:13;3.47;;;2.00;;
10904;SDS011;5505;51.450;9.254;2023-07-31T05:01:59;2.70;;;1.83;;
10904;SDS011;5505;51.450;9.254;2023-07-31T05:04:48;4.77;;;2.30;;
10904;SDS011;5505;51.450;9.254;2023-07-31T05:07:34;3.03;;;2.10;;
10904;SDS011;5505;51.450;9.254;2023-07-31T05:10:21;4.70;;;2.27;;
10904;SDS011;5505;51.450;9.254;2023-07-31T05:13:08;4.67;;;2.23;;
10904;SDS011;5505;51.450;9.254;2023-07-31T05:15:55;3.57;;;2.10;;
10904;SDS011;5505;51.450;9.254;2023-07-31T05:18:42;2.93;;;2.30;;
10904;SDS011;5505;51.450;9.254;2023-07-31T05:21:30;3.03;;;2.10;;
10904;SDS011;5505;51.450;9.254;2023-07-31T05:24:17;3.80;;;2.23;;
10904;SDS011;5505;51.450;9.254;2023-07-31T05:27:04;5.13;;;2.20;;
10904;SDS011;5505;51.450;9.254;2023-07-31T05:29:51;2.87;;;1.90;;
10904;SDS011;5505;51.450;9.254;2023-07-31T05:32:38;3.07;;;2.30;;
10904;SDS011;5505;51.450;9.254;2023-07-31T05:35:25;4.43;;;2.20;;
10904;SDS011;5505;51.450;9.254;2023-07-31T05:38:13;4.13;;;2.17;;
10904;SDS011;5505;51.450;9.254;2023-07-31T05:41:00;5.97;;;2.10;;
10904;SDS011;5505;51.450;9.254;2023-07-31T05:43:46;4.47;;;2.10;;
10904;SDS011;5505;51.450;9.254;2023-07-31T05:46:33;3.23;;;1.90;;
10904;SDS011;5505;51.450;9.254;2023-07-31T05:49:20;3.60;;;2.47;;
10904;SDS011;5505;51.450;9.254;2023-07-31T05:52:07;3.37;;;2.03;;
10904;SDS011;5505;51.450;9.254;2023-07-31T05:54:56;3.87;;;2.30;;
10904;SDS011;5505;51.450;9.254;2023-07-31T05:57:43;5.20;;;2.30;;
10904;SDS011;5505;51.450;9.254;2023-07-31T06:00:30;4.13;;;2.00;;
10904;SDS011;5505;51.450;9.254;2023-07-31T06:03:17;3.03;;;2.10;;
10904;SDS011;5505;51.450;9.254;2023-07-31T06:06:04;4.07;;;2.30;;
10904;SDS011;5505;51.450;9.254;2023-07-31T06:08:51;3.67;;;2.30;;
10904;SDS011;5505;51.450;9.254;2023-07-31T06:11:39;4.07;;;2.00;;
10904;SDS011;5505;51.450;9.254;2023-07-31T06:14:26;3.43;;;2.30;;
10904;SDS011;5505;51.450;9.254;2023-07-31T06:17:13;3.43;;;2.37;;
10904;SDS011;5505;51.450;9.254;2023-07-31T06:19:59;3.90;;;2.07;;
10904;SDS011;5505;51.450;9.254;2023-07-31T06:22:46;4.57;;;2.20;;
10904;SDS011;5505;51.450;9.254;2023-07-31T06:25:33;3.17;;;2.17;;
10904;SDS011;5505;51.450;9.254;2023-07-31T06:28:23;4.13;;;2.40;;
10904;SDS011;5505;51.450;9.254;2023-07-31T06:31:14;4.70;;;2.50;;
10904;SDS011;5505;51.450;9.254;2023-07-31T06:34:01;4.83;;;2.20;;
10904;SDS011;5505;51.450;9.254;2023-07-31T06:36:47;3.83;;;2.03;;
10904;SDS011;5505;51.450;9.254;2023-07-31T06:39:34;4.17;;;1.90;;
10904;SDS011;5505;51.450;9.254;2023-07-31T06:42:22;3.80;;;2.17;;
10904;SDS011;5505;51.450;9.254;2023-07-31T06:45:10;4.10;;;1.90;;
10904;SDS011;5505;51.450;9.254;2023-07-31T06:47:57;5.00;;;2.30;;
10904;SDS011;5505;51.450;9.254;2023-07-31T06:50:46;3.47;;;2.40;;
10904;SDS011;5505;51.450;9.254;2023-07-31T06:53:33;4.73;;;2.33;;
10904;SDS011;5505;51.450;9.254;2023-07-31T06:56:20;3.00;;;2.07;;
10904;SDS011;5505;51.450;9.254;2023-07-31T06:59:07;3.47;;;2.30;;
10904;SDS011;5505;51.450;9.254;2023-07-31T07:01:55;4.57;;;2.60;;
10904;SDS011;5505;51.450;9.254;2023-07-31T07:04:42;2.50;;;2.10;;
10904;SDS011;5505;51.450;9.254;2023-07-31T07:07:29;4.17;;;2.30;;
10904;SDS011;5505;51.450;9.254;2023-07-31T07:10:15;3.43;;;2.10;;
10904;SDS011;5505;51.450;9.254;2023-07-31T07:13:02;2.93;;;2.53;;
10904;SDS011;5505;51.450;9.254;2023-07-31T07:15:50;4.67;;;2.10;;
10904;SDS011;5505;51.450;9.254;2023-07-31T07:18:38;3.00;;;2.10;;
10904;SDS011;5505;51.450;9.254;2023-07-31T07:21:25;3.30;;;2.20;;
10904;SDS011;5505;51.450;9.254;2023-07-31T07:24:11;5.30;;;2.30;;
10904;SDS011;5505;51.450;9.254;2023-07-31T07:26:58;2.93;;;2.30;;
10904;SDS011;5505;51.450;9.254;2023-07-31T07:29:45;3.67;;;2.00;;
10904;SDS011;5505;51.450;9.254;2023-07-31T07:32:33;2.90;;;2.10;;
10904;SDS011;5505;51.450;9.254;2023-07-31T07:35:21;2.57;;;1.60;;
10904;SDS011;5505;51.450;9.254;2023-07-31T07:38:07;3.23;;;1.83;;
10904;SDS011;5505;51.450;9.254;2023-07-31T07:40:55;3.80;;;1.70;;
10904;SDS011;5505;51.450;9.254;2023-07-31T07:43:48;2.67;;;1.57;;
10904;SDS011;5505;51.450;9.254;2023-07-31T07:46:34;3.00;;;1.80;;
10904;SDS011;5505;51.450;9.254;2023-07-31T07:49:21;3.03;;;1.57;;
10904;SDS011;5505;51.450;9.254;2023-07-31T07:52:09;2.37;;;1.63;;
10904;SDS011;5505;51.450;9.254;2023-07-31T07:54:56;2.33;;;1.73;;
10904;SDS011;5505;51.450;9.254;2023-07-31T07:57:43;2.10;;;1.70;;
10904;SDS011;5505;51.450;9.254;2023-07-31T08:00:30;3.30;;;2.10;;
10904;SDS011;5505;51.450;9.254;2023-07-31T08:03:16;3.87;;;2.07;;
10904;SDS011;5505;51.450;9.254;2023-07-31T08:06:04;3.47;;;2.20;;
10904;SDS011;5505;51.450;9.254;2023-07-31T08:08:52;3.60;;;2.43;;
10904;SDS011;5505;51.450;9.254;2023-07-31T08:11:38;3.40;;;2.37;;
10904;SDS011;5505;51.450;9.254;2023-07-31T08:14:25;2.70;;;2.27;;
10904;SDS011;5505;51.450;9.254;2023-07-31T08:17:12;2.73;;;2.30;;
10904;SDS011;5505;51.450;9.254;2023-07-31T08:19:59;4.10;;;2.40;;
10904;SDS011;5505;51.450;9.254;2023-07-31T08:22:45;4.27;;;2.70;;
10904;SDS011;5505;51.450;9.254;2023-07-31T08:25:35;3.63;;;2.33;;
10904;SDS011;5505;51.450;9.254;2023-07-31T08:28:22;4.13;;;2.57;;
10904;SDS011;5505;51.450;9.254;2023-07-31T08:31:09;3.93;;;2.70;;
10904;SDS011;5505;51.450;9.254;2023-07-31T08:33:56;3.70;;;2.53;;
10904;SDS011;5505;51.450;9.254;2023-07-31T08:36:43;4.03;;;2.40;;
10904;SDS011;5505;51.450;9.254;2023-07-31T08:39:30;3.77;;;2.40;;
10904;SDS011;5505;51.450;9.254;2023-07-31T08:42:18;4.60;;;2.50;;
10904;SDS011;5505;51.450;9.254;2023-07-31T08:45:05;3.33;;;2.50;;
10904;SDS011;5505;51.450;9.254;2023-07-31T08:47:52;3.73;;;2.47;;
10904;SDS011;5505;51.450;9.254;2023-07-31T08:50:39;6.33;;;2.20;;
10904;SDS011;5505;51.450;9.254;2023-07-31T08:53:26;3.47;;;2.40;;
10904;SDS011;5505;51.450;9.254;2023-07-31T08:56:13;4.17;;;2.60;;
10904;SDS011;5505;51.450;9.254;2023-07-31T08:59:03;5.13;;;2.23;;
10904;SDS011;5505;51.450;9.254;2023-07-31T09:01:52;4.93;;;2.73;;
10904;SDS011;5505;51.450;9.254;2023-07-31T09:04:41;3.93;;;2.20;;
10904;SDS011;5505;51.450;9.254;2023-07-31T09:07:28;4.07;;;2.10;;
10904;SDS011;5505;51.450;9.254;2023-07-31T09:10:17;4.67;;;2.77;;
10904;SDS011;5505;51.450;9.254;2023-07-31T09:13:04;2.70;;;2.13;;
10904;SDS011;5505;51.450;9.254;2023-07-31T09:15:54;3.57;;;2.13;;
10904;SDS011;5505;51.450;9.254;2023-07-31T09:18:52;4.20;;;2.53;;
10904;SDS011;5505;51.450;9.254;2023-07-31T09:21:47;3.10;;;2.30;;
10904;SDS011;5505;51.450;9.254;2023-07-31T09:24:34;3.47;;;2.10;;
10904;SDS011;5505;51.450;9.254;2023-07-31T09:27:23;3.37;;;2.23;;
10904;SDS011;5505;51.450;9.254;2023-07-31T09:30:10;3.67;;;2.23;;
10904;SDS011;5505;51.450;9.254;2023-07-31T09:33:03;4.43;;;1.93;;
10904;SDS011;5505;51.450;9.254;2023-07-31T09:35:51;3.60;;;2.30;;
10904;SDS011;5505;51.450;9.254;2023-07-31T09:38:38;3.10;;;2.07;;
10904;SDS011;5505;51.450;9.254;2023-07-31T09:41:24;4.23;;;2.17;;
10904;SDS011;5505;51.450;9.254;2023-07-31T09:44:11;2.47;;;1.90;;
10904;SDS011;5505;51.450;9.254;2023-07-31T09:46:58;3.13;;;2.43;;
10904;SDS011;5505;51.450;9.254;2023-07-31T09:49:46;3.80;;;2.60;;
10904;SDS011;5505;51.450;9.254;2023-07-31T09:52:33;5.20;;;2.73;;
10904;SDS011;5505;51.450;9.254;2023-07-31T09:55:20;2.73;;;2.30;;
10904;SDS011;5505;51.450;9.254;2023-07-31T09:58:08;3.77;;;2.30;;
10904;SDS011;5505;51.450;9.254;2023-07-31T10:00:57;4.47;;;2.40;;
10904;SDS011;5505;51.450;9.254;2023-07-31T10:03:45;2.97;;;1.97;;
10904;SDS011;5505;51.450;9.254;2023-07-31T10:06:34;4.73;;;2.60;;
10904;SDS011;5505;51.450;9.254;2023-07-31T10:09:22;6.60;;;2.67;;
10904;SDS011;5505;51.450;9.254;2023-07-31T10:12:12;3.87;;;2.80;;
10904;SDS011;5505;51.450;9.254;2023-07-31T10:15:02;2.80;;;2.30;;
10904;SDS011;5505;51.450;9.254;2023-07-31T10:17:49;3.80;;;2.40;;
10904;SDS011;5505;51.450;9.254;2023-07-31T10:20:37;4.67;;;2.70;;
10904;SDS011;5505;51.450;9.254;2023-07-31T10:23:25;3.20;;;2.30;;
10904;SDS011;5505;51.450;9.254;2023-07-31T10:26:13;3.33;;;2.57;;
10904;SDS011;5505;51.450;9.254;2023-07-31T10:29:00;3.80;;;2.43;;
10904;SDS011;5505;51.450;9.254;2023-07-31T10:31:47;3.80;;;2.30;;
10904;SDS011;5505;51.450;9.254;2023-07-31T10:34:34;2.67;;;2.27;;
10904;SDS011;5505;51.450;9.254;2023-07-31T10:37:22;2.73;;;2.20;;
10904;SDS011;5505;51.450;9.254;2023-07-31T10:40:13;4.67;;;2.40;;
10904;SDS011;5505;51.450;9.254;2023-07-31T10:43:02;3.60;;;2.40;;
10904;SDS011;5505;51.450;9.254;2023-07-31T10:45:49;3.43;;;2.40;;
10904;SDS011;5505;51.450;9.254;2023-07-31T10:48:36;4.93;;;2.73;;
10904;SDS011;5505;51.450;9.254;2023-07-31T10:51:32;3.97;;;2.40;;
10904;SDS011;5505;51.450;9.254;2023-07-31T10:54:19;2.77;;;2.47;;
10904;SDS011;5505;51.450;9.254;2023-07-31T10:57:19;3.03;;;2.20;;
10904;SDS011;5505;51.450;9.254;2023-07-31T11:00:17;4.30;;;2.37;;
10904;SDS011;5505;51.450;9.254;2023-07-31T11:03:06;3.23;;;2.40;;
10904;SDS011;5505;51.450;9.254;2023-07-31T11:05:59;3.80;;;2.20;;
10904;SDS011;5505;51.450;9.254;2023-07-31T11:08:48;2.73;;;2.20;;
10904;SDS011;5505;51.450;9.254;2023-07-31T11:11:36;5.40;;;2.30;;
10904;SDS011;5505;51.450;9.254;2023-07-31T11:14:24;2.63;;;2.20;;
10904;SDS011;5505;51.450;9.254;2023-07-31T11:17:11;3.87;;;1.90;;
10904;SDS011;5505;51.450;9.254;2023-07-31T11:19:58;3.80;;;2.20;;
10904;SDS011;5505;51.450;9.254;2023-07-31T11:22:45;4.20;;;2.07;;
10904;SDS011;5505;51.450;9.254;2023-07-31T11:25:33;2.57;;;2.10;;
10904;SDS011;5505;51.450;9.254;2023-07-31T11:28:20;3.27;;;1.80;;
10904;SDS011;5505;51.450;9.254;2023-07-31T11:31:09;1.40;;;1.30;;
10904;SDS011;5505;51.450;9.254;2023-07-31T11:34:04;2.20;;;1.57;;
10904;SDS011;5505;51.450;9.254;2023-07-31T11:36:54;2.87;;;1.60;;
10904;SDS011;5505;51.450;9.254;2023-07-31T11:39:41;3.20;;;1.47;;
10904;SDS011;5505;51.450;9.254;2023-07-31T11:42:28;1.50;;;1.40;;
10904;SDS011;5505;51.450;9.254;2023-07-31T11:45:15;2.23;;;1.40;;
10904;SDS011;5505;51.450;9.254;2023-07-31T11:48:03;1.77;;;1.37;;
10904;SDS011;5505;51.450;9.254;2023-07-31T11:50:50;1.37;;;1.27;;
10904;SDS011;5505;51.450;9.254;2023-07-31T11:53:42;1.20;;;1.10;;
10904;SDS011;5505;51.450;9.254;2023-07-31T11:56:30;1.30;;;1.20;;
10904;SDS011;5505;51.450;9.254;2023-07-31T11:59:17;1.43;;;1.00;;
10904;SDS011;5505;51.450;9.254;2023-07-31T12:02:04;1.80;;;1.10;;
10904;SDS011;5505;51.450;9.254;2023-07-31T12:04:53;1.73;;;1.30;;
10904;SDS011;5505;51.450;9.254;2023-07-31T12:07:46;1.10;;;0.97;;
10904;SDS011;5505;51.450;9.254;2023-07-31T12:10:35;2.40;;;1.23;;
10904;SDS011;5505;51.450;9.254;2023-07-31T12:13:22;1.53;;;1.13;;
10904;SDS011;5505;51.450;9.254;2023-07-31T12:16:11;2.00;;;1.30;;
10904;SDS011;5505;51.450;9.254;2023-07-31T12:18:58;4.10;;;1.23;;
10904;SDS011;5505;51.450;9.254;2023-07-31T12:21:46;2.77;;;1.47;;
10904;SDS011;5505;51.450;9.254;2023-07-31T12:24:33;1.67;;;1.53;;
10904;SDS011;5505;51.450;9.254;2023-07-31T12:27:22;1.90;;;1.50;;
10904;SDS011;5505;51.450;9.254;2023-07-31T12:30:25;1.73;;;1.40;;
10904;SDS011;5505;51.450;9.254;2023-07-31T12:33:13;2.37;;;1.63;;
10904;SDS011;5505;51.450;9.254;2023-07-31T12:36:01;2.00;;;1.70;;
10904;SDS011;5505;51.450;9.254;2023-07-31T12:38:51;2.27;;;1.70;;
10904;SDS011;5505;51.450;9.254;2023-07-31T12:41:38;3.00;;;1.80;;
10904;SDS011;5505;51.450;9.254;2023-07-31T12:44:25;2.20;;;1.57;;
10904;SDS011;5505;51.450;9.254;2023-07-31T12:47:12;2.20;;;1.57;;
10904;SDS011;5505;51.450;9.254;2023-07-31T12:50:00;1.77;;;1.67;;
10904;SDS011;5505;51.450;9.254;2023-07-31T12:52:47;1.70;;;1.60;;
10904;SDS011;5505;51.450;9.254;2023-07-31T12:55:35;2.40;;;1.90;;
10904;SDS011;5505;51.450;9.254;2023-07-31T12:58:22;1.97;;;1.50;;
10904;SDS011;5505;51.450;9.254;2023-07-31T13:01:09;2.50;;;1.50;;
10904;SDS011;5505;51.450;9.254;2023-07-31T13:03:56;2.33;;;1.60;;
10904;SDS011;5505;51.450;9.254;2023-07-31T13:06:43;2.50;;;1.70;;
10904;SDS011;5505;51.450;9.254;2023-07-31T13:09:30;2.47;;;1.70;;
10904;SDS011;5505;51.450;9.254;2023-07-31T13:12:18;2.80;;;1.80;;
10904;SDS011;5505;51.450;9.254;2023-07-31T13:15:06;3.93;;;2.03;;
10904;SDS011;5505;51.450;9.254;2023-07-31T13:17:53;1.97;;;1.77;;
10904;SDS011;5505;51.450;9.254;2023-07-31T13:20:40;2.97;;;1.90;;
10904;SDS011;5505;51.450;9.254;2023-07-31T13:23:27;2.50;;;1.90;;
10904;SDS011;5505;51.450;9.254;2023-07-31T13:26:13;3.73;;;2.20;;
10904;SDS011;5505;51.450;9.254;2023-07-31T13:29:01;3.13;;;1.87;;
10904;SDS011;5505;51.450;9.254;2023-07-31T13:31:48;2.87;;;1.90;;
10904;SDS011;5505;51.450;9.254;2023-07-31T13:34:35;6.00;;;1.97;;
10904;SDS011;5505;51.450;9.254;2023-07-31T13:37:22;4.17;;;1.90;;
10904;SDS011;5505;51.450;9.254;2023-07-31T13:40:09;5.07;;;1.97;;
10904;SDS011;5505;51.450;9.254;2023-07-31T13:42:56;2.60;;;1.60;;
10904;SDS011;5505;51.450;9.254;2023-07-31T13:45:44;4.77;;;1.70;;
10904;SDS011;5505;51.450;9.254;2023-07-31T13:48:31;2.73;;;1.63;;
10904;SDS011;5505;51.450;9.254;2023-07-31T13:51:18;4.23;;;1.83;;
10904;SDS011;5505;51.450;9.254;2023-07-31T13:54:05;1.60;;;1.50;;
10904;SDS011;5505;51.450;9.254;2023-07-31T13:56:52;2.57;;;1.87;;
10904;SDS011;5505;51.450;9.254;2023-07-31T13:59:39;2.53;;;1.40;;
10904;SDS011;5505;51.450;9.254;2023-07-31T14:02:27;2.73;;;1.60;;
10904;SDS011;5505;51.450;9.254;2023-07-31T14:05:14;6.13;;;2.03;;
10904;SDS011;5505;51.450;9.254;2023-07-31T14:08:01;4.70;;;2.30;;
10904;SDS011;5505;51.450;9.254;2023-07-31T14:10:47;3.80;;;1.90;;
10904;SDS011;5505;51.450;9.254;2023-07-31T14:13:34;3.13;;;1.63;;
10904;SDS011;5505;51.450;9.254;2023-07-31T14:16:21;4.80;;;1.43;;
10904;SDS011;5505;51.450;9.254;2023-07-31T14:19:09;3.27;;;1.73;;
10904;SDS011;5505;51.450;9.254;2023-07-31T14:21:57;3.07;;;1.73;;
10904;SDS011;5505;51.450;9.254;2023-07-31T14:24:44;3.73;;;1.60;;
10904;SDS011;5505;51.450;9.254;2023-07-31T14:27:31;4.03;;;1.97;;
10904;SDS011;5505;51.450;9.254;2023-07-31T14:30:19;4.27;;;1.43;;
10904;SDS011;5505;51.450;9.254;2023-07-31T14:33:06;2.37;;;1.43;;
10904;SDS011;5505;51.450;9.254;2023-07-31T14:35:54;3.33;;;1.73;;
10904;SDS011;5505;51.450;9.254;2023-07-31T14:38:41;2.87;;;1.83;;
10904;SDS011;5505;51.450;9.254;2023-07-31T14:41:28;2.10;;;1.60;;
10904;SDS011;5505;51.450;9.254;2023-07-31T14:44:14;2.43;;;1.70;;
10904;SDS011;5505;51.450;9.254;2023-07-31T14:47:01;2.10;;;1.60;;
10904;SDS011;5505;51.450;9.254;2023-07-31T14:49:48;2.30;;;1.60;;
10904;SDS011;5505;51.450;9.254;2023-07-31T14:52:36;2.60;;;1.40;;
10904;SDS011;5505;51.450;9.254;2023-07-31T14:55:23;2.83;;;1.50;;
10904;SDS011;5505;51.450;9.254;2023-07-31T14:58:10;1.33;;;1.23;;
10904;SDS011;5505;51.450;9.254;2023-07-31T15:00:58;3.17;;;1.30;;
10904;SDS011;5505;51.450;9.254;2023-07-31T15:03:45;2.50;;;1.00;;
10904;SDS011;5505;51.450;9.254;2023-07-31T15:06:32;2.03;;;1.50;;
10904;SDS011;5505;51.450;9.254;2023-07-31T15:09:20;1.77;;;1.00;;
10904;SDS011;5505;51.450;9.254;2023-07-31T15:12:07;2.33;;;1.50;;
10904;SDS011;5505;51.450;9.254;2023-07-31T15:14:54;3.10;;;1.33;;
10904;SDS011;5505;51.450;9.254;2023-07-31T15:17:41;1.40;;;1.27;;
10904;SDS011;5505;51.450;9.254;2023-07-31T15:20:28;3.40;;;1.60;;
10904;SDS011;5505;51.450;9.254;2023-07-31T15:23:15;1.63;;;1.50;;
10904;SDS011;5505;51.450;9.254;2023-07-31T15:26:03;2.27;;;1.40;;
10904;SDS011;5505;51.450;9.254;2023-07-31T15:28:55;2.40;;;1.53;;
10904;SDS011;5505;51.450;9.254;2023-07-31T15:31:42;2.77;;;1.33;;
10904;SDS011;5505;51.450;9.254;2023-07-31T15:34:29;2.43;;;1.33;;
10904;SDS011;5505;51.450;9.254;2023-07-31T15:37:17;2.67;;;1.20;;
10904;SDS011;5505;51.450;9.254;2023-07-31T15:40:04;1.77;;;1.20;;
10904;SDS011;5505;51.450;9.254;2023-07-31T15:42:52;1.70;;;1.00;;
10904;SDS011;5505;51.450;9.254;2023-07-31T15:45:39;0.90;;;0.90;;
10904;SDS011;5505;51.450;9.254;2023-07-31T15:48:26;3.13;;;1.20;;
10904;SDS011;5505;51.450;9.254;2023-07-31T15:51:13;3.90;;;1.20;;
10904;SDS011;5505;51.450;9.254;2023-07-31T15:54:00;3.43;;;1.00;;
10904;SDS011;5505;51.450;9.254;2023-07-31T15:56:47;4.50;;;1.73;;
10904;SDS011;5505;51.450;9.254;2023-07-31T15:59:35;4.80;;;1.33;;
10904;SDS011;5505;51.450;9.254;2023-07-31T16:02:22;5.77;;;1.90;;
10904;SDS011;5505;51.450;9.254;2023-07-31T16:05:08;1.13;;;1.03;;
10904;SDS011;5505;51.450;9.254;2023-07-31T16:07:55;2.37;;;1.20;;
10904;SDS011;5505;51.450;9.254;2023-07-31T16:10:42;1.43;;;1.10;;
10904;SDS011;5505;51.450;9.254;2023-07-31T16:13:29;1.33;;;1.23;;
10904;SDS011;5505;51.450;9.254;2023-07-31T16:16:17;2.70;;;1.40;;
10904;SDS011;5505;51.450;9.254;2023-07-31T16:19:05;1.90;;;1.70;;
10904;SDS011;5505;51.450;9.254;2023-07-31T16:21:51;2.00;;;1.50;;
10904;SDS011;5505;51.450;9.254;2023-07-31T16:24:38;2.20;;;1.60;;
10904;SDS011;5505;51.450;9.254;2023-07-31T16:27:25;3.17;;;1.73;;
10904;SDS011;5505;51.450;9.254;2023-07-31T16:30:12;2.57;;;1.70;;
10904;SDS011;5505;51.450;9.254;2023-07-31T16:33:00;3.00;;;1.80;;
10904;SDS011;5505;51.450;9.254;2023-07-31T16:35:47;3.60;;;1.80;;
10904;SDS011;5505;51.450;9.254;2023-07-31T16:38:34;4.00;;;2.17;;
10904;SDS011;5505;51.450;9.254;2023-07-31T16:41:21;3.63;;;1.60;;
10904;SDS011;5505;51.450;9.254;2023-07-31T16:44:09;4.20;;;2.13;;
10904;SDS011;5505;51.450;9.254;2023-07-31T16:46:56;2.97;;;2.10;;
10904;SDS011;5505;51.450;9.254;2023-07-31T16:49:44;3.50;;;2.00;;
10904;SDS011;5505;51.450;9.254;2023-07-31T16:52:31;2.27;;;1.83;;
10904;SDS011;5505;51.450;9.254;2023-07-31T16:55:18;2.27;;;1.70;;
10904;SDS011;5505;51.450;9.254;2023-07-31T16:58:05;4.23;;;1.60;;
10904;SDS011;5505;51.450;9.254;2023-07-31T17:00:51;3.07;;;2.20;;
10904;SDS011;5505;51.450;9.254;2023-07-31T17:03:38;2.07;;;1.80;;
10904;SDS011;5505;51.450;9.254;2023-07-31T17:06:26;2.50;;;1.90;;